sensor_id;sensor_type;location;lat;lon;timestamp;P1;durP1;ratioP1;P2;durP2;ratioP2
68870;SDS011;55906;52.278;6.808;2023-12-29T00:02:21;9.25;;;4.15;;
68870;SDS011;55906;52.278;6.808;2023-12-29T00:04:49;14.15;;;4.50;;
68870;SDS011;55906;52.278;6.808;2023-12-29T00:07:16;11.07;;;4.93;;
68870;SDS011;55906;52.278;6.808;2023-12-29T00:09:43;12.25;;;4.80;;
68870;SDS011;55906;52.278;6.808;2023-12-29T00:12:09;9.88;;;3.88;;
68870;SDS011;55906;52.278;6.808;2023-12-29T00:14:36;8.38;;;4.38;;
68870;SDS011;55906;52.278;6.808;2023-12-29T00:17:05;15.05;;;4.75;;
68870;SDS011;55906;52.278;6.808;2023-12-29T00:19:31;14.23;;;4.30;;
68870;SDS011;55906;52.278;6.808;2023-12-29T00:21:59;10.88;;;4.55;;
68870;SDS011;55906;52.278;6.808;2023-12-29T00:24:28;16.02;;;4.55;;
68870;SDS011;55906;52.278;6.808;2023-12-29T00:26:56;9.88;;;4.50;;
68870;SDS011;55906;52.278;6.808;2023-12-29T00:29:23;10.18;;;3.90;;
68870;SDS011;55906;52.278;6.808;2023-12-29T00:31:49;8.93;;;4.07;;
68870;SDS011;55906;52.278;6.808;2023-12-29T00:34:16;10.15;;;4.43;;
68870;SDS011;55906;52.278;6.808;2023-12-29T00:36:43;9.63;;;4.55;;
68870;SDS011;55906;52.278;6.808;2023-12-29T00:39:11;12.18;;;4.55;;
68870;SDS011;55906;52.278;6.808;2023-12-29T00:41:39;11.05;;;4.15;;
68870;SDS011;55906;52.278;6.808;2023-12-29T00:44:06;10.10;;;3.97;;
68870;SDS011;55906;52.278;6.808;2023-12-29T00:46:33;8.73;;;4.00;;
68870;SDS011;55906;52.278;6.808;2023-12-29T00:48:59;12.05;;;4.70;;
68870;SDS011;55906;52.278;6.808;2023-12-29T00:51:26;11.00;;;4.25;;
68870;SDS011;55906;52.278;6.808;2023-12-29T00:53:53;11.98;;;4.47;;
68870;SDS011;55906;52.278;6.808;2023-12-29T00:56:21;13.27;;;4.60;;
68870;SDS011;55906;52.278;6.808;2023-12-29T00:58:47;9.18;;;4.05;;
68870;SDS011;55906;52.278;6.808;2023-12-29T01:01:14;10.18;;;3.70;;
68870;SDS011;55906;52.278;6.808;2023-12-29T01:03:41;12.10;;;4.50;;
68870;SDS011;55906;52.278;6.808;2023-12-29T01:06:08;12.98;;;4.30;;
68870;SDS011;55906;52.278;6.808;2023-12-29T01:08:34;12.90;;;4.23;;
68870;SDS011;55906;52.278;6.808;2023-12-29T01:11:01;9.10;;;3.85;;
68870;SDS011;55906;52.278;6.808;2023-12-29T01:13:29;11.60;;;3.47;;
68870;SDS011;55906;52.278;6.808;2023-12-29T01:15:56;9.15;;;3.85;;
68870;SDS011;55906;52.278;6.808;2023-12-29T01:18:22;11.30;;;4.35;;
68870;SDS011;55906;52.278;6.808;2023-12-29T01:20:49;9.17;;;4.50;;
68870;SDS011;55906;52.278;6.808;2023-12-29T01:23:16;13.93;;;4.72;;
68870;SDS011;55906;52.278;6.808;2023-12-29T01:25:43;12.68;;;4.85;;
68870;SDS011;55906;52.278;6.808;2023-12-29T01:28:10;12.35;;;4.70;;
68870;SDS011;55906;52.278;6.808;2023-12-29T01:30:41;9.90;;;4.20;;
68870;SDS011;55906;52.278;6.808;2023-12-29T01:33:08;12.90;;;4.83;;
68870;SDS011;55906;52.278;6.808;2023-12-29T01:35:35;9.90;;;3.90;;
68870;SDS011;55906;52.278;6.808;2023-12-29T01:38:02;7.88;;;4.13;;
68870;SDS011;55906;52.278;6.808;2023-12-29T01:40:29;8.82;;;3.83;;
68870;SDS011;55906;52.278;6.808;2023-12-29T01:42:56;9.52;;;4.03;;
68870;SDS011;55906;52.278;6.808;2023-12-29T01:45:23;13.60;;;4.30;;
68870;SDS011;55906;52.278;6.808;2023-12-29T01:47:53;13.70;;;4.70;;
68870;SDS011;55906;52.278;6.808;2023-12-29T01:50:21;9.55;;;4.20;;
68870;SDS011;55906;52.278;6.808;2023-12-29T01:52:48;12.90;;;4.18;;
68870;SDS011;55906;52.278;6.808;2023-12-29T01:55:17;13.15;;;4.22;;
68870;SDS011;55906;52.278;6.808;2023-12-29T01:57:47;10.40;;;3.87;;
68870;SDS011;55906;52.278;6.808;2023-12-29T02:00:15;8.73;;;3.70;;
68870;SDS011;55906;52.278;6.808;2023-12-29T02:02:43;9.48;;;3.90;;
68870;SDS011;55906;52.278;6.808;2023-12-29T02:05:12;7.20;;;3.70;;
68870;SDS011;55906;52.278;6.808;2023-12-29T02:07:40;11.57;;;4.10;;
68870;SDS011;55906;52.278;6.808;2023-12-29T02:10:06;7.07;;;3.47;;
68870;SDS011;55906;52.278;6.808;2023-12-29T02:12:34;10.13;;;3.88;;
68870;SDS011;55906;52.278;6.808;2023-12-29T02:15:01;10.25;;;3.65;;
68870;SDS011;55906;52.278;6.808;2023-12-29T02:17:29;7.82;;;3.80;;
68870;SDS011;55906;52.278;6.808;2023-12-29T02:19:59;9.25;;;4.18;;
68870;SDS011;55906;52.278;6.808;2023-12-29T02:22:28;9.53;;;4.33;;
68870;SDS011;55906;52.278;6.808;2023-12-29T02:24:56;9.25;;;3.75;;
68870;SDS011;55906;52.278;6.808;2023-12-29T02:27:25;11.45;;;4.50;;
68870;SDS011;55906;52.278;6.808;2023-12-29T02:30:08;10.15;;;4.28;;
68870;SDS011;55906;52.278;6.808;2023-12-29T02:32:38;11.73;;;4.28;;
68870;SDS011;55906;52.278;6.808;2023-12-29T02:35:06;8.73;;;4.00;;
68870;SDS011;55906;52.278;6.808;2023-12-29T02:37:36;12.50;;;4.47;;
68870;SDS011;55906;52.278;6.808;2023-12-29T02:40:05;12.25;;;4.35;;
68870;SDS011;55906;52.278;6.808;2023-12-29T02:42:34;6.20;;;3.55;;
68870;SDS011;55906;52.278;6.808;2023-12-29T02:45:00;10.23;;;3.58;;
68870;SDS011;55906;52.278;6.808;2023-12-29T02:47:27;10.67;;;4.23;;
68870;SDS011;55906;52.278;6.808;2023-12-29T02:49:54;8.80;;;4.07;;
68870;SDS011;55906;52.278;6.808;2023-12-29T02:52:21;8.65;;;4.00;;
68870;SDS011;55906;52.278;6.808;2023-12-29T02:54:48;10.10;;;4.35;;
68870;SDS011;55906;52.278;6.808;2023-12-29T02:57:16;10.02;;;4.13;;
68870;SDS011;55906;52.278;6.808;2023-12-29T02:59:42;10.83;;;3.53;;
68870;SDS011;55906;52.278;6.808;2023-12-29T03:02:09;10.10;;;4.00;;
68870;SDS011;55906;52.278;6.808;2023-12-29T03:04:36;10.13;;;4.97;;
68870;SDS011;55906;52.278;6.808;2023-12-29T03:07:03;10.43;;;3.75;;
68870;SDS011;55906;52.278;6.808;2023-12-29T03:09:30;8.57;;;3.80;;
68870;SDS011;55906;52.278;6.808;2023-12-29T03:11:56;8.17;;;4.20;;
68870;SDS011;55906;52.278;6.808;2023-12-29T03:14:25;9.20;;;3.55;;
68870;SDS011;55906;52.278;6.808;2023-12-29T03:16:51;6.55;;;3.65;;
68870;SDS011;55906;52.278;6.808;2023-12-29T03:19:18;9.93;;;4.15;;
68870;SDS011;55906;52.278;6.808;2023-12-29T03:21:45;10.02;;;4.28;;
68870;SDS011;55906;52.278;6.808;2023-12-29T03:24:11;9.83;;;4.43;;
68870;SDS011;55906;52.278;6.808;2023-12-29T03:26:38;10.98;;;3.97;;
68870;SDS011;55906;52.278;6.808;2023-12-29T03:29:06;6.95;;;3.63;;
68870;SDS011;55906;52.278;6.808;2023-12-29T03:31:34;7.13;;;4.18;;
68870;SDS011;55906;52.278;6.808;2023-12-29T03:34:01;8.13;;;3.80;;
68870;SDS011;55906;52.278;6.808;2023-12-29T03:36:27;11.53;;;4.43;;
68870;SDS011;55906;52.278;6.808;2023-12-29T03:38:54;13.95;;;4.10;;
68870;SDS011;55906;52.278;6.808;2023-12-29T03:41:21;11.82;;;4.78;;
68870;SDS011;55906;52.278;6.808;2023-12-29T03:43:47;8.40;;;4.05;;
68870;SDS011;55906;52.278;6.808;2023-12-29T03:46:17;9.75;;;4.22;;
68870;SDS011;55906;52.278;6.808;2023-12-29T03:48:45;7.53;;;3.97;;
68870;SDS011;55906;52.278;6.808;2023-12-29T03:51:12;9.68;;;5.03;;
68870;SDS011;55906;52.278;6.808;2023-12-29T03:53:40;10.73;;;4.20;;
68870;SDS011;55906;52.278;6.808;2023-12-29T03:56:07;9.65;;;3.80;;
68870;SDS011;55906;52.278;6.808;2023-12-29T03:58:34;9.37;;;4.03;;
68870;SDS011;55906;52.278;6.808;2023-12-29T04:01:01;13.10;;;4.40;;
68870;SDS011;55906;52.278;6.808;2023-12-29T04:03:28;9.93;;;4.78;;
68870;SDS011;55906;52.278;6.808;2023-12-29T04:05:56;15.43;;;4.57;;
68870;SDS011;55906;52.278;6.808;2023-12-29T04:08:23;12.15;;;4.95;;
68870;SDS011;55906;52.278;6.808;2023-12-29T04:10:49;10.30;;;4.53;;
68870;SDS011;55906;52.278;6.808;2023-12-29T04:13:16;10.88;;;4.68;;
68870;SDS011;55906;52.278;6.808;2023-12-29T04:15:43;13.55;;;5.05;;
68870;SDS011;55906;52.278;6.808;2023-12-29T04:18:09;10.20;;;4.53;;
68870;SDS011;55906;52.278;6.808;2023-12-29T04:20:36;10.80;;;4.73;;
68870;SDS011;55906;52.278;6.808;2023-12-29T04:23:06;12.82;;;5.10;;
68870;SDS011;55906;52.278;6.808;2023-12-29T04:25:34;9.07;;;4.43;;
68870;SDS011;55906;52.278;6.808;2023-12-29T04:28:01;12.85;;;4.53;;
68870;SDS011;55906;52.278;6.808;2023-12-29T04:30:27;10.82;;;4.75;;
68870;SDS011;55906;52.278;6.808;2023-12-29T04:32:54;13.70;;;4.40;;
68870;SDS011;55906;52.278;6.808;2023-12-29T04:35:21;10.48;;;4.40;;
68870;SDS011;55906;52.278;6.808;2023-12-29T04:37:48;10.48;;;4.75;;
68870;SDS011;55906;52.278;6.808;2023-12-29T04:40:17;13.00;;;4.20;;
68870;SDS011;55906;52.278;6.808;2023-12-29T04:42:44;9.87;;;4.27;;
68870;SDS011;55906;52.278;6.808;2023-12-29T04:45:11;12.00;;;4.50;;
68870;SDS011;55906;52.278;6.808;2023-12-29T04:47:38;14.43;;;5.10;;
68870;SDS011;55906;52.278;6.808;2023-12-29T04:50:05;12.30;;;4.50;;
68870;SDS011;55906;52.278;6.808;2023-12-29T04:52:32;11.13;;;4.83;;
68870;SDS011;55906;52.278;6.808;2023-12-29T04:54:59;10.70;;;4.68;;
68870;SDS011;55906;52.278;6.808;2023-12-29T04:57:27;11.15;;;5.13;;
68870;SDS011;55906;52.278;6.808;2023-12-29T04:59:54;12.48;;;4.47;;
68870;SDS011;55906;52.278;6.808;2023-12-29T05:02:21;12.07;;;5.03;;
68870;SDS011;55906;52.278;6.808;2023-12-29T05:04:48;16.27;;;4.80;;
68870;SDS011;55906;52.278;6.808;2023-12-29T05:07:14;11.35;;;4.72;;
68870;SDS011;55906;52.278;6.808;2023-12-29T05:09:41;13.98;;;4.50;;
68870;SDS011;55906;52.278;6.808;2023-12-29T05:12:08;11.48;;;4.57;;
68870;SDS011;55906;52.278;6.808;2023-12-29T05:14:36;17.17;;;4.68;;
68870;SDS011;55906;52.278;6.808;2023-12-29T05:17:03;10.77;;;4.37;;
68870;SDS011;55906;52.278;6.808;2023-12-29T05:19:29;10.63;;;4.30;;
68870;SDS011;55906;52.278;6.808;2023-12-29T05:21:56;9.05;;;4.43;;
68870;SDS011;55906;52.278;6.808;2023-12-29T05:24:23;11.07;;;4.30;;
68870;SDS011;55906;52.278;6.808;2023-12-29T05:26:49;11.47;;;4.90;;
68870;SDS011;55906;52.278;6.808;2023-12-29T05:29:16;13.65;;;4.43;;
68870;SDS011;55906;52.278;6.808;2023-12-29T05:31:44;9.23;;;5.03;;
68870;SDS011;55906;52.278;6.808;2023-12-29T05:34:11;13.43;;;4.63;;
68870;SDS011;55906;52.278;6.808;2023-12-29T05:36:38;15.33;;;5.23;;
68870;SDS011;55906;52.278;6.808;2023-12-29T05:39:05;12.80;;;5.85;;
68870;SDS011;55906;52.278;6.808;2023-12-29T05:41:32;13.73;;;5.28;;
68870;SDS011;55906;52.278;6.808;2023-12-29T05:43:59;15.35;;;5.03;;
68870;SDS011;55906;52.278;6.808;2023-12-29T05:46:26;11.55;;;5.53;;
68870;SDS011;55906;52.278;6.808;2023-12-29T05:48:54;12.55;;;4.68;;
68870;SDS011;55906;52.278;6.808;2023-12-29T05:51:21;13.30;;;5.40;;
68870;SDS011;55906;52.278;6.808;2023-12-29T05:53:48;12.57;;;5.78;;
68870;SDS011;55906;52.278;6.808;2023-12-29T05:56:14;9.90;;;5.10;;
68870;SDS011;55906;52.278;6.808;2023-12-29T05:58:41;10.07;;;4.83;;
68870;SDS011;55906;52.278;6.808;2023-12-29T06:01:08;20.05;;;4.95;;
68870;SDS011;55906;52.278;6.808;2023-12-29T06:03:35;11.77;;;4.70;;
68870;SDS011;55906;52.278;6.808;2023-12-29T06:06:04;17.30;;;6.28;;
68870;SDS011;55906;52.278;6.808;2023-12-29T06:08:31;12.57;;;4.93;;
68870;SDS011;55906;52.278;6.808;2023-12-29T06:10:58;12.02;;;4.68;;
68870;SDS011;55906;52.278;6.808;2023-12-29T06:13:24;12.43;;;4.88;;
68870;SDS011;55906;52.278;6.808;2023-12-29T06:15:51;17.25;;;5.13;;
68870;SDS011;55906;52.278;6.808;2023-12-29T06:18:18;13.40;;;4.82;;
68870;SDS011;55906;52.278;6.808;2023-12-29T06:20:44;20.67;;;5.07;;
68870;SDS011;55906;52.278;6.808;2023-12-29T06:23:12;16.13;;;4.57;;
68870;SDS011;55906;52.278;6.808;2023-12-29T06:25:39;16.95;;;4.90;;
68870;SDS011;55906;52.278;6.808;2023-12-29T06:28:06;14.52;;;5.38;;
68870;SDS011;55906;52.278;6.808;2023-12-29T06:30:33;17.58;;;4.95;;
68870;SDS011;55906;52.278;6.808;2023-12-29T06:33:00;15.10;;;4.75;;
68870;SDS011;55906;52.278;6.808;2023-12-29T06:35:27;11.07;;;5.10;;
68870;SDS011;55906;52.278;6.808;2023-12-29T06:37:53;17.20;;;5.18;;
68870;SDS011;55906;52.278;6.808;2023-12-29T06:40:22;13.65;;;5.30;;
68870;SDS011;55906;52.278;6.808;2023-12-29T06:42:48;10.70;;;4.60;;
68870;SDS011;55906;52.278;6.808;2023-12-29T06:45:15;14.70;;;5.15;;
68870;SDS011;55906;52.278;6.808;2023-12-29T06:47:42;15.90;;;6.00;;
68870;SDS011;55906;52.278;6.808;2023-12-29T06:50:08;17.88;;;5.03;;
68870;SDS011;55906;52.278;6.808;2023-12-29T06:52:38;16.40;;;5.17;;
68870;SDS011;55906;52.278;6.808;2023-12-29T06:55:05;12.77;;;5.38;;
68870;SDS011;55906;52.278;6.808;2023-12-29T06:57:34;21.30;;;4.90;;
68870;SDS011;55906;52.278;6.808;2023-12-29T07:00:01;11.18;;;4.57;;
68870;SDS011;55906;52.278;6.808;2023-12-29T07:02:29;16.47;;;4.67;;
68870;SDS011;55906;52.278;6.808;2023-12-29T07:04:55;14.68;;;5.50;;
68870;SDS011;55906;52.278;6.808;2023-12-29T07:07:22;18.92;;;5.68;;
68870;SDS011;55906;52.278;6.808;2023-12-29T07:09:49;16.27;;;5.28;;
68870;SDS011;55906;52.278;6.808;2023-12-29T07:12:15;11.70;;;4.45;;
68870;SDS011;55906;52.278;6.808;2023-12-29T07:14:44;17.40;;;4.60;;
68870;SDS011;55906;52.278;6.808;2023-12-29T07:17:11;12.43;;;4.82;;
68870;SDS011;55906;52.278;6.808;2023-12-29T07:19:37;14.27;;;5.75;;
68870;SDS011;55906;52.278;6.808;2023-12-29T07:22:04;15.32;;;4.03;;
68870;SDS011;55906;52.278;6.808;2023-12-29T07:24:32;11.95;;;4.28;;
68870;SDS011;55906;52.278;6.808;2023-12-29T07:27:00;16.57;;;4.60;;
68870;SDS011;55906;52.278;6.808;2023-12-29T07:29:27;13.68;;;4.70;;
68870;SDS011;55906;52.278;6.808;2023-12-29T07:31:55;14.38;;;4.70;;
68870;SDS011;55906;52.278;6.808;2023-12-29T07:34:22;15.23;;;4.50;;
68870;SDS011;55906;52.278;6.808;2023-12-29T07:36:48;14.35;;;4.50;;
68870;SDS011;55906;52.278;6.808;2023-12-29T07:39:15;11.47;;;3.77;;
68870;SDS011;55906;52.278;6.808;2023-12-29T07:41:42;7.93;;;3.85;;
68870;SDS011;55906;52.278;6.808;2023-12-29T07:44:09;14.63;;;5.13;;
68870;SDS011;55906;52.278;6.808;2023-12-29T07:46:37;14.77;;;4.55;;
68870;SDS011;55906;52.278;6.808;2023-12-29T07:49:06;19.83;;;5.20;;
68870;SDS011;55906;52.278;6.808;2023-12-29T07:51:32;12.63;;;3.97;;
68870;SDS011;55906;52.278;6.808;2023-12-29T07:53:59;13.38;;;4.38;;
68870;SDS011;55906;52.278;6.808;2023-12-29T07:56:25;12.00;;;5.47;;
68870;SDS011;55906;52.278;6.808;2023-12-29T07:58:52;14.88;;;4.63;;
68870;SDS011;55906;52.278;6.808;2023-12-29T08:01:18;15.80;;;4.43;;
68870;SDS011;55906;52.278;6.808;2023-12-29T08:03:45;10.45;;;4.55;;
68870;SDS011;55906;52.278;6.808;2023-12-29T08:06:13;16.88;;;4.60;;
68870;SDS011;55906;52.278;6.808;2023-12-29T08:08:40;9.85;;;4.00;;
68870;SDS011;55906;52.278;6.808;2023-12-29T08:11:12;11.30;;;4.30;;
68870;SDS011;55906;52.278;6.808;2023-12-29T08:13:39;11.10;;;4.00;;
68870;SDS011;55906;52.278;6.808;2023-12-29T08:16:06;11.55;;;3.85;;
68870;SDS011;55906;52.278;6.808;2023-12-29T08:18:33;9.07;;;4.53;;
68870;SDS011;55906;52.278;6.808;2023-12-29T08:21:00;8.85;;;3.65;;
68870;SDS011;55906;52.278;6.808;2023-12-29T08:23:28;13.13;;;4.15;;
68870;SDS011;55906;52.278;6.808;2023-12-29T08:25:55;6.13;;;3.93;;
68870;SDS011;55906;52.278;6.808;2023-12-29T08:28:22;12.93;;;3.70;;
68870;SDS011;55906;52.278;6.808;2023-12-29T08:30:49;10.65;;;4.13;;
68870;SDS011;55906;52.278;6.808;2023-12-29T08:33:16;7.22;;;3.65;;
68870;SDS011;55906;52.278;6.808;2023-12-29T08:35:43;9.95;;;4.13;;
68870;SDS011;55906;52.278;6.808;2023-12-29T08:38:11;9.77;;;3.63;;
68870;SDS011;55906;52.278;6.808;2023-12-29T08:40:39;10.35;;;4.38;;
68870;SDS011;55906;52.278;6.808;2023-12-29T08:43:06;9.38;;;4.45;;
68870;SDS011;55906;52.278;6.808;2023-12-29T08:45:33;9.10;;;4.25;;
68870;SDS011;55906;52.278;6.808;2023-12-29T08:48:00;12.05;;;4.28;;
68870;SDS011;55906;52.278;6.808;2023-12-29T08:50:28;10.50;;;3.77;;
68870;SDS011;55906;52.278;6.808;2023-12-29T08:52:54;11.25;;;4.18;;
68870;SDS011;55906;52.278;6.808;2023-12-29T08:55:21;9.68;;;5.32;;
68870;SDS011;55906;52.278;6.808;2023-12-29T08:57:49;8.55;;;4.32;;
68870;SDS011;55906;52.278;6.808;2023-12-29T09:00:16;9.57;;;4.03;;
68870;SDS011;55906;52.278;6.808;2023-12-29T09:02:43;7.83;;;4.47;;
68870;SDS011;55906;52.278;6.808;2023-12-29T09:05:09;10.13;;;4.07;;
68870;SDS011;55906;52.278;6.808;2023-12-29T09:07:36;11.00;;;5.00;;
68870;SDS011;55906;52.278;6.808;2023-12-29T09:10:03;11.23;;;4.20;;
68870;SDS011;55906;52.278;6.808;2023-12-29T09:12:33;8.30;;;5.20;;
68870;SDS011;55906;52.278;6.808;2023-12-29T09:15:01;8.15;;;4.90;;
68870;SDS011;55906;52.278;6.808;2023-12-29T09:17:28;10.35;;;4.57;;
68870;SDS011;55906;52.278;6.808;2023-12-29T09:19:55;9.32;;;5.20;;
68870;SDS011;55906;52.278;6.808;2023-12-29T09:22:22;10.93;;;5.95;;
68870;SDS011;55906;52.278;6.808;2023-12-29T09:24:49;10.43;;;5.07;;
68870;SDS011;55906;52.278;6.808;2023-12-29T09:27:15;9.52;;;5.80;;
68870;SDS011;55906;52.278;6.808;2023-12-29T09:29:42;9.50;;;5.70;;
68870;SDS011;55906;52.278;6.808;2023-12-29T09:32:10;11.90;;;5.85;;
68870;SDS011;55906;52.278;6.808;2023-12-29T09:34:37;11.50;;;6.10;;
68870;SDS011;55906;52.278;6.808;2023-12-29T09:37:04;10.40;;;5.13;;
68870;SDS011;55906;52.278;6.808;2023-12-29T09:39:31;14.95;;;6.03;;
68870;SDS011;55906;52.278;6.808;2023-12-29T09:41:58;12.48;;;5.72;;
68870;SDS011;55906;52.278;6.808;2023-12-29T09:44:27;11.65;;;5.93;;
68870;SDS011;55906;52.278;6.808;2023-12-29T09:46:54;10.23;;;6.15;;
68870;SDS011;55906;52.278;6.808;2023-12-29T09:49:23;6.90;;;4.23;;
68870;SDS011;55906;52.278;6.808;2023-12-29T09:51:51;13.57;;;7.80;;
68870;SDS011;55906;52.278;6.808;2023-12-29T09:54:19;16.23;;;8.82;;
68870;SDS011;55906;52.278;6.808;2023-12-29T09:56:46;11.27;;;5.72;;
68870;SDS011;55906;52.278;6.808;2023-12-29T09:59:15;10.55;;;5.38;;
68870;SDS011;55906;52.278;6.808;2023-12-29T10:01:43;8.27;;;4.63;;
68870;SDS011;55906;52.278;6.808;2023-12-29T10:04:13;11.40;;;5.45;;
68870;SDS011;55906;52.278;6.808;2023-12-29T10:06:43;9.35;;;6.65;;
68870;SDS011;55906;52.278;6.808;2023-12-29T10:09:13;9.63;;;4.97;;
68870;SDS011;55906;52.278;6.808;2023-12-29T10:11:43;9.60;;;5.45;;
68870;SDS011;55906;52.278;6.808;2023-12-29T10:14:17;12.00;;;4.40;;
68870;SDS011;55906;52.278;6.808;2023-12-29T10:16:52;8.70;;;4.40;;
68870;SDS011;55906;52.278;6.808;2023-12-29T10:19:27;10.57;;;5.10;;
68870;SDS011;55906;52.278;6.808;2023-12-29T10:22:06;8.73;;;4.18;;
68870;SDS011;55906;52.278;6.808;2023-12-29T10:24:38;10.43;;;4.57;;
68870;SDS011;55906;52.278;6.808;2023-12-29T10:27:07;12.17;;;4.47;;
68870;SDS011;55906;52.278;6.808;2023-12-29T10:29:33;7.47;;;4.38;;
68870;SDS011;55906;52.278;6.808;2023-12-29T10:32:01;6.05;;;4.00;;
68870;SDS011;55906;52.278;6.808;2023-12-29T10:34:28;8.50;;;3.60;;
68870;SDS011;55906;52.278;6.808;2023-12-29T10:36:57;9.53;;;4.97;;
68870;SDS011;55906;52.278;6.808;2023-12-29T10:39:25;8.80;;;5.32;;
68870;SDS011;55906;52.278;6.808;2023-12-29T10:42:02;10.60;;;5.90;;
68870;SDS011;55906;52.278;6.808;2023-12-29T10:44:30;10.20;;;5.55;;
68870;SDS011;55906;52.278;6.808;2023-12-29T10:46:58;11.05;;;5.53;;
68870;SDS011;55906;52.278;6.808;2023-12-29T10:49:25;9.43;;;5.73;;
68870;SDS011;55906;52.278;6.808;2023-12-29T10:51:51;9.27;;;5.97;;
68870;SDS011;55906;52.278;6.808;2023-12-29T10:54:20;12.85;;;5.75;;
68870;SDS011;55906;52.278;6.808;2023-12-29T10:56:54;15.20;;;7.82;;
68870;SDS011;55906;52.278;6.808;2023-12-29T10:59:27;17.17;;;8.52;;
68870;SDS011;55906;52.278;6.808;2023-12-29T11:01:55;19.60;;;8.40;;
68870;SDS011;55906;52.278;6.808;2023-12-29T11:04:22;9.35;;;5.25;;
68870;SDS011;55906;52.278;6.808;2023-12-29T11:06:49;11.35;;;5.00;;
68870;SDS011;55906;52.278;6.808;2023-12-29T11:09:21;8.43;;;5.60;;
68870;SDS011;55906;52.278;6.808;2023-12-29T11:11:55;6.45;;;4.68;;
68870;SDS011;55906;52.278;6.808;2023-12-29T11:14:23;7.47;;;4.10;;
68870;SDS011;55906;52.278;6.808;2023-12-29T11:16:49;7.28;;;5.10;;
68870;SDS011;55906;52.278;6.808;2023-12-29T11:19:18;6.63;;;4.03;;
68870;SDS011;55906;52.278;6.808;2023-12-29T11:21:46;9.73;;;4.80;;
68870;SDS011;55906;52.278;6.808;2023-12-29T11:24:15;5.88;;;3.53;;
68870;SDS011;55906;52.278;6.808;2023-12-29T11:26:41;5.67;;;4.50;;
68870;SDS011;55906;52.278;6.808;2023-12-29T11:29:12;6.00;;;4.47;;
68870;SDS011;55906;52.278;6.808;2023-12-29T11:31:38;7.07;;;4.30;;
68870;SDS011;55906;52.278;6.808;2023-12-29T11:34:06;4.45;;;3.75;;
68870;SDS011;55906;52.278;6.808;2023-12-29T11:36:40;7.15;;;4.53;;
68870;SDS011;55906;52.278;6.808;2023-12-29T11:39:14;8.73;;;4.20;;
68870;SDS011;55906;52.278;6.808;2023-12-29T11:41:56;6.57;;;3.88;;
68870;SDS011;55906;52.278;6.808;2023-12-29T11:44:44;5.45;;;3.60;;
68870;SDS011;55906;52.278;6.808;2023-12-29T11:47:26;6.93;;;4.00;;
68870;SDS011;55906;52.278;6.808;2023-12-29T11:50:00;7.30;;;4.15;;
68870;SDS011;55906;52.278;6.808;2023-12-29T11:52:34;9.27;;;4.03;;
68870;SDS011;55906;52.278;6.808;2023-12-29T11:55:08;5.32;;;3.13;;
68870;SDS011;55906;52.278;6.808;2023-12-29T11:57:35;5.65;;;3.60;;
68870;SDS011;55906;52.278;6.808;2023-12-29T12:00:05;5.45;;;4.22;;
68870;SDS011;55906;52.278;6.808;2023-12-29T12:02:33;7.07;;;3.40;;
68870;SDS011;55906;52.278;6.808;2023-12-29T12:05:00;5.90;;;3.27;;
68870;SDS011;55906;52.278;6.808;2023-12-29T12:10:28;6.00;;;3.75;;
68870;SDS011;55906;52.278;6.808;2023-12-29T12:12:56;6.50;;;3.67;;
68870;SDS011;55906;52.278;6.808;2023-12-29T12:15:33;10.65;;;3.90;;
68870;SDS011;55906;52.278;6.808;2023-12-29T12:18:01;7.33;;;3.63;;
68870;SDS011;55906;52.278;6.808;2023-12-29T12:20:30;6.53;;;4.55;;
68870;SDS011;55906;52.278;6.808;2023-12-29T12:22:57;7.85;;;4.30;;
68870;SDS011;55906;52.278;6.808;2023-12-29T12:25:25;8.15;;;4.45;;
68870;SDS011;55906;52.278;6.808;2023-12-29T12:27:53;6.73;;;3.57;;
68870;SDS011;55906;52.278;6.808;2023-12-29T12:30:20;6.25;;;3.55;;
68870;SDS011;55906;52.278;6.808;2023-12-29T12:32:48;8.02;;;4.05;;
68870;SDS011;55906;52.278;6.808;2023-12-29T12:35:23;6.80;;;4.18;;
68870;SDS011;55906;52.278;6.808;2023-12-29T12:38:06;7.82;;;4.03;;
68870;SDS011;55906;52.278;6.808;2023-12-29T12:40:33;5.93;;;3.70;;
68870;SDS011;55906;52.278;6.808;2023-12-29T12:43:00;9.82;;;4.45;;
68870;SDS011;55906;52.278;6.808;2023-12-29T12:45:28;9.77;;;3.90;;
68870;SDS011;55906;52.278;6.808;2023-12-29T12:48:01;7.50;;;3.80;;
68870;SDS011;55906;52.278;6.808;2023-12-29T12:50:29;6.50;;;3.80;;
68870;SDS011;55906;52.278;6.808;2023-12-29T12:52:56;8.17;;;3.80;;
68870;SDS011;55906;52.278;6.808;2023-12-29T12:55:24;6.72;;;3.70;;
68870;SDS011;55906;52.278;6.808;2023-12-29T12:57:52;9.05;;;3.47;;
68870;SDS011;55906;52.278;6.808;2023-12-29T13:00:22;6.20;;;3.70;;
68870;SDS011;55906;52.278;6.808;2023-12-29T13:02:49;13.50;;;5.55;;
68870;SDS011;55906;52.278;6.808;2023-12-29T13:05:17;14.50;;;4.60;;
68870;SDS011;55906;52.278;6.808;2023-12-29T13:07:44;7.88;;;4.43;;
68870;SDS011;55906;52.278;6.808;2023-12-29T13:10:11;10.75;;;5.20;;
68870;SDS011;55906;52.278;6.808;2023-12-29T13:12:37;9.48;;;4.68;;
68870;SDS011;55906;52.278;6.808;2023-12-29T13:15:04;9.18;;;4.68;;
68870;SDS011;55906;52.278;6.808;2023-12-29T13:17:33;12.77;;;5.37;;
68870;SDS011;55906;52.278;6.808;2023-12-29T13:19:59;10.85;;;5.22;;
68870;SDS011;55906;52.278;6.808;2023-12-29T13:22:28;11.73;;;5.25;;
68870;SDS011;55906;52.278;6.808;2023-12-29T13:24:55;9.98;;;4.15;;
68870;SDS011;55906;52.278;6.808;2023-12-29T13:27:22;9.70;;;3.97;;
68870;SDS011;55906;52.278;6.808;2023-12-29T13:29:48;16.03;;;3.90;;
68870;SDS011;55906;52.278;6.808;2023-12-29T13:32:16;10.10;;;4.50;;
68870;SDS011;55906;52.278;6.808;2023-12-29T13:34:50;8.10;;;4.50;;
68870;SDS011;55906;52.278;6.808;2023-12-29T13:37:23;10.07;;;4.85;;
68870;SDS011;55906;52.278;6.808;2023-12-29T13:39:54;12.30;;;5.05;;
68870;SDS011;55906;52.278;6.808;2023-12-29T13:42:26;9.93;;;4.63;;
68870;SDS011;55906;52.278;6.808;2023-12-29T13:44:57;7.93;;;4.25;;
68870;SDS011;55906;52.278;6.808;2023-12-29T13:47:26;11.82;;;3.78;;
68870;SDS011;55906;52.278;6.808;2023-12-29T13:49:53;8.10;;;3.60;;
68870;SDS011;55906;52.278;6.808;2023-12-29T13:52:19;9.90;;;3.67;;
68870;SDS011;55906;52.278;6.808;2023-12-29T13:54:46;9.87;;;3.83;;
68870;SDS011;55906;52.278;6.808;2023-12-29T13:57:14;11.10;;;3.70;;
68870;SDS011;55906;52.278;6.808;2023-12-29T13:59:41;11.50;;;4.32;;
68870;SDS011;55906;52.278;6.808;2023-12-29T14:02:23;6.90;;;3.25;;
68870;SDS011;55906;52.278;6.808;2023-12-29T14:07:52;14.50;;;6.27;;
68870;SDS011;55906;52.278;6.808;2023-12-29T14:10:21;12.20;;;5.65;;
68870;SDS011;55906;52.278;6.808;2023-12-29T14:12:49;10.98;;;6.43;;
68870;SDS011;55906;52.278;6.808;2023-12-29T14:15:16;11.93;;;5.93;;
68870;SDS011;55906;52.278;6.808;2023-12-29T14:17:43;12.98;;;5.05;;
68870;SDS011;55906;52.278;6.808;2023-12-29T14:20:09;13.90;;;5.63;;
68870;SDS011;55906;52.278;6.808;2023-12-29T14:22:36;10.32;;;4.43;;
68870;SDS011;55906;52.278;6.808;2023-12-29T14:25:03;15.43;;;6.43;;
68870;SDS011;55906;52.278;6.808;2023-12-29T14:27:32;13.85;;;6.40;;
68870;SDS011;55906;52.278;6.808;2023-12-29T14:30:01;8.65;;;4.80;;
68870;SDS011;55906;52.278;6.808;2023-12-29T14:32:28;13.57;;;5.60;;
68870;SDS011;55906;52.278;6.808;2023-12-29T14:34:55;11.73;;;4.68;;
68870;SDS011;55906;52.278;6.808;2023-12-29T14:37:22;11.85;;;5.22;;
68870;SDS011;55906;52.278;6.808;2023-12-29T14:39:50;12.07;;;6.57;;
68870;SDS011;55906;52.278;6.808;2023-12-29T14:42:17;11.00;;;4.40;;
68870;SDS011;55906;52.278;6.808;2023-12-29T14:44:45;11.97;;;4.67;;
68870;SDS011;55906;52.278;6.808;2023-12-29T14:47:13;11.05;;;4.65;;
68870;SDS011;55906;52.278;6.808;2023-12-29T14:49:41;8.75;;;5.30;;
68870;SDS011;55906;52.278;6.808;2023-12-29T14:52:07;9.65;;;5.95;;